Time;durP1;ratioP1;P1;durP2;ratioP2;P2;SDS_P1;SDS_P2;PMS_P1;PMS_P2;Temp;Humidity;BMP_temperature;BMP_pressure;BME280_temperature;BME280_humidity;BME280_pressure;Samples;Min_cycle;Max_cycle;Signal;HPM_P1;HPM_P2
2024/04/12 00:00:32;;;;;;;14.50;9.93;;;;;;;5.89;100.00;97789.81;1112159;26;20010;-71
2024/04/12 00:01:06;;;;;;;15.13;10.32;;;;;;;5.84;100.00;97785.16;1109836;26;20012;-71
2024/04/12 00:01:37;;;;;;;14.55;10.18;;;;;;;5.88;100.00;97789.03;1100162;26;20002;-71
2024/04/12 00:02:08;;;;;;;15.77;10.60;;;;;;;5.86;100.00;97790.97;1100187;26;20074;-71
2024/04/12 00:02:39;;;;;;;15.25;10.40;;;;;;;5.85;100.00;97785.97;1098433;26;20079;-71
2024/04/12 00:03:09;;;;;;;15.00;11.05;;;;;;;5.91;100.00;97788.66;1096102;26;20069;-71
2024/04/12 00:03:41;;;;;;;19.33;11.25;;;;;;;5.90;100.00;97794.03;1095901;27;20061;-70
2024/04/12 00:04:16;;;;;;;16.40;10.93;;;;;;;5.89;100.00;97795.03;1095652;27;20085;-70
2024/04/12 00:04:46;;;;;;;17.48;10.82;;;;;;;5.90;100.00;97802.69;1088709;27;20009;-71
2024/04/12 00:05:20;;;;;;;14.35;10.88;;;;;;;5.90;100.00;97794.88;1090027;27;20006;-71
2024/04/12 00:05:51;;;;;;;15.80;10.32;;;;;;;5.91;100.00;97799.06;1097628;26;20008;-71
2024/04/12 00:06:25;;;;;;;24.15;10.70;;;;;;;5.90;100.00;97794.03;1105117;26;20004;-70
2024/04/12 00:07:00;;;;;;;13.07;10.30;;;;;;;5.89;100.00;97795.03;1120119;26;19996;-71
2024/04/12 00:07:35;;;;;;;15.95;10.80;;;;;;;5.87;100.00;97803.03;1123427;26;19994;-71
2024/04/12 00:08:07;;;;;;;21.05;10.85;;;;;;;5.86;100.00;97793.59;1118559;26;20006;-71
2024/04/12 00:08:38;;;;;;;15.85;10.52;;;;;;;5.85;100.00;97794.59;1118629;26;19999;-71
2024/04/12 00:09:17;;;;;;;16.45;10.70;;;;;;;5.84;100.00;97790.38;1110469;26;20011;-71
2024/04/12 00:09:52;;;;;;;16.90;10.85;;;;;;;5.84;100.00;97792.97;1102846;26;20001;-71
2024/04/12 00:10:23;;;;;;;23.80;11.63;;;;;;;5.84;100.00;97795.59;1089495;27;20085;-71
2024/04/12 00:10:56;;;;;;;15.82;10.75;;;;;;;5.85;100.00;97794.59;1096216;27;20006;-71
2024/04/12 00:11:26;;;;;;;13.98;10.27;;;;;;;5.83;100.00;97791.34;1096320;27;20459;-71
2024/04/12 00:12:00;;;;;;;17.10;11.00;;;;;;;5.82;100.00;97789.75;1093754;26;20014;-71
2024/04/12 00:12:30;;;;;;;17.13;11.20;;;;;;;5.85;100.00;97786.78;1097396;26;20009;-71
2024/04/12 00:13:01;;;;;;;17.63;11.25;;;;;;;5.86;100.00;97785.78;1096523;27;20009;-71
2024/04/12 00:13:31;;;;;;;18.52;11.50;;;;;;;5.86;100.00;97793.59;1096472;27;20001;-71
2024/04/12 00:14:02;;;;;;;14.40;10.82;;;;;;;5.86;100.00;97790.97;1097485;26;20001;-71
2024/04/12 00:14:33;;;;;;;16.45;11.57;;;;;;;5.84;100.00;97785.16;1111014;26;20012;-71
2024/04/12 00:15:16;;;;;;;18.75;12.00;;;;;;;5.80;100.00;97772.66;1118213;26;19999;-71
2024/04/12 00:15:47;;;;;;;18.20;11.07;;;;;;;5.85;100.00;97788.56;1096354;27;19997;-71
2024/04/12 00:16:24;;;;;;;18.52;11.43;;;;;;;5.84;100.00;97782.56;1096205;26;20745;-71
2024/04/12 00:16:56;;;;;;;16.88;11.35;;;;;;;5.86;100.00;97785.78;1089398;27;20002;-71
2024/04/12 00:17:31;;;;;;;19.08;11.30;;;;;;;5.83;100.00;97780.13;1094486;27;20009;-71
2024/04/12 00:18:01;;;;;;;19.67;11.40;;;;;;;5.88;100.00;97785.59;1105145;26;20045;-71
2024/04/12 00:18:35;;;;;;;17.60;11.60;;;;;;;5.84;100.00;97777.34;1105117;26;20338;-71
2024/04/12 00:19:12;;;;;;;19.55;10.88;;;;;;;5.89;100.00;97782.81;1103715;26;20546;-71
2024/04/12 00:19:42;;;;;;;18.88;12.02;;;;;;;5.90;100.00;97786.22;1106035;26;19997;-71
2024/04/12 00:20:13;;;;;;;19.35;11.90;;;;;;;5.90;100.00;97784.44;1111138;26;19997;-71
2024/04/12 00:20:44;;;;;;;19.10;11.77;;;;;;;5.90;100.00;97781.84;1104302;26;20556;-71
2024/04/12 00:21:15;;;;;;;18.58;11.10;;;;;;;5.89;100.00;97785.41;1103483;26;20005;-71
2024/04/12 00:21:49;;;;;;;26.02;12.18;;;;;;;5.91;100.00;97783.44;1096379;27;20002;-71
2024/04/12 00:22:20;;;;;;;18.35;10.80;;;;;;;5.89;100.00;97789.81;1089238;27;20014;-71
2024/04/12 00:22:55;;;;;;;16.67;12.07;;;;;;;5.89;100.00;97782.81;1090174;27;20457;-70
2024/04/12 00:23:26;;;;;;;17.27;11.05;;;;;;;5.89;100.00;97785.41;1091677;27;20013;-71
2024/04/12 00:23:59;;;;;;;16.77;10.90;;;;;;;5.88;100.00;97777.78;1094067;26;20678;-71
2024/04/12 00:24:29;;;;;;;19.80;11.80;;;;;;;5.88;100.00;97776.00;1103311;26;20001;-71
2024/04/12 00:25:04;;;;;;;16.52;12.00;;;;;;;5.87;100.00;97777.00;1082921;27;19999;-71
2024/04/12 00:25:34;;;;;;;18.02;11.15;;;;;;;5.89;100.00;97775.00;1091122;27;19994;-71
2024/04/12 00:26:05;;;;;;;16.70;11.30;;;;;;;5.89;100.00;97775.00;1090849;27;19998;-71
2024/04/12 00:26:35;;;;;;;21.70;11.85;;;;;;;5.83;100.00;97765.28;1099549;26;20005;-71
2024/04/12 00:27:08;;;;;;;18.30;12.77;;;;;;;5.87;100.00;97777.00;1103730;26;20008;-71
2024/04/12 00:27:38;;;;;;;17.92;12.00;;;;;;;5.88;100.00;97765.56;1096906;26;20002;-71
2024/04/12 00:28:09;;;;;;;17.60;10.98;;;;;;;5.87;100.00;97771.78;1103126;26;20419;-71
2024/04/12 00:28:41;;;;;;;21.13;11.98;;;;;;;5.87;100.00;97773.59;1105090;26;19997;-71
2024/04/12 00:29:25;;;;;;;18.63;12.00;;;;;;;5.87;100.00;97777.00;1111945;26;20468;-71
2024/04/12 00:29:56;;;;;;;13.80;10.40;;;;;;;5.87;100.00;97778.78;1117992;26;20004;-71
2024/04/12 00:30:39;;;;;;;20.60;12.20;;;;;;;5.87;100.00;97770.97;1117994;26;20005;-71
2024/04/12 00:31:13;;;;;;;16.40;10.57;;;;;;;5.86;100.00;97777.16;1118304;26;20420;-71
2024/04/12 00:31:46;;;;;;;18.95;10.15;;;;;;;5.85;100.00;97783.38;1118156;26;20535;-71
2024/04/12 00:32:18;;;;;;;15.80;11.00;;;;;;;5.78;100.00;97761.63;1118121;26;20003;-70
2024/04/12 00:32:56;;;;;;;18.65;11.90;;;;;;;5.81;100.00;97772.50;1108374;26;20055;-71
2024/04/12 00:33:34;;;;;;;18.95;11.23;;;;;;;5.83;100.00;97780.94;1110770;26;20000;-71
2024/04/12 00:34:04;;;;;;;15.02;11.35;;;;;;;5.79;100.00;97769.25;1110770;26;20009;-71
2024/04/12 00:34:38;;;;;;;17.38;11.02;;;;;;;5.75;100.00;97760.19;1118863;26;20363;-71
2024/04/12 00:35:11;;;;;;;16.33;11.07;;;;;;;5.76;100.00;97769.63;1106474;26;19996;-71
2024/04/12 00:35:41;;;;;;;14.63;11.15;;;;;;;5.78;100.00;97770.25;1103561;26;19993;-71
2024/04/12 00:36:12;;;;;;;15.75;11.30;;;;;;;5.73;100.00;97769.97;1096373;27;20002;-71
2024/04/12 00:36:44;;;;;;;16.20;11.45;;;;;;;5.76;100.00;97774.81;1092307;26;19998;-71
2024/04/12 00:37:20;;;;;;;21.15;11.27;;;;;;;5.73;100.00;97767.38;1103606;26;20001;-71
2024/04/12 00:37:53;;;;;;;17.35;11.50;;;;;;;5.75;100.00;97768.00;1107406;26;20129;-71
2024/04/12 00:38:23;;;;;;;17.17;11.10;;;;;;;5.71;100.00;97761.56;1112605;26;20008;-72
2024/04/12 00:38:55;;;;;;;15.70;11.82;;;;;;;5.76;100.00;97768.81;1110666;26;20007;-71
2024/04/12 00:39:35;;;;;;;16.35;11.35;;;;;;;5.82;100.00;97779.31;1100559;26;20048;-70
2024/04/12 00:40:07;;;;;;;19.23;11.55;;;;;;;5.77;100.00;97762.59;1092244;27;20459;-71
2024/04/12 00:40:40;;;;;;;20.23;11.60;;;;;;;5.81;100.00;97769.91;1088480;27;20603;-71
2024/04/12 00:41:18;;;;;;;17.25;10.93;;;;;;;5.75;100.00;97757.59;1100197;26;20004;-71
2024/04/12 00:41:49;;;;;;;15.18;10.63;;;;;;;5.79;100.00;97760.63;1091999;27;20053;-71
2024/04/12 00:42:26;;;;;;;15.07;11.18;;;;;;;5.79;100.00;97764.03;1087933;26;20027;-71
2024/04/12 00:42:57;;;;;;;14.63;11.07;;;;;;;5.73;100.00;97754.34;1096491;27;20009;-72
2024/04/12 00:43:27;;;;;;;17.48;11.18;;;;;;;5.75;100.00;97752.38;1090856;27;20480;-71
2024/04/12 00:44:03;;;;;;;18.33;11.15;;;;;;;5.74;100.00;97753.38;1097924;26;19998;-71
2024/04/12 00:44:38;;;;;;;24.33;11.20;;;;;;;5.73;100.00;97754.34;1096405;27;20785;-71
2024/04/12 00:45:12;;;;;;;17.05;11.20;;;;;;;5.74;100.00;97752.56;1096268;26;20417;-71
2024/04/12 00:45:43;;;;;;;17.90;11.77;;;;;;;5.71;100.00;97755.53;1099592;26;20013;-71
2024/04/12 00:46:15;;;;;;;16.17;10.98;;;;;;;5.67;100.00;97752.50;1098883;26;20852;-71
2024/04/12 00:46:46;;;;;;;17.67;11.23;;;;;;;5.64;100.00;97750.25;1105043;26;20001;-71
2024/04/12 00:47:16;;;;;;;18.38;11.52;;;;;;;5.68;100.00;97751.50;1096521;27;20002;-71
2024/04/12 00:47:47;;;;;;;18.50;11.23;;;;;;;5.68;100.00;97756.72;1096977;26;20009;-71
2024/04/12 00:48:21;;;;;;;16.05;10.15;;;;;;;5.66;100.00;97754.25;1096701;26;20137;-72
2024/04/12 00:48:52;;;;;;;15.13;10.40;;;;;;;5.67;100.00;97752.50;1097163;26;20452;-71
2024/04/12 00:49:30;;;;;;;17.80;11.27;;;;;;;5.66;100.00;97753.47;1088467;27;20113;-70
2024/04/12 00:50:01;;;;;;;17.50;10.95;;;;;;;5.66;100.00;97753.47;1089262;27;20002;-71
2024/04/12 00:50:31;;;;;;;18.25;11.65;;;;;;;5.63;100.00;97752.06;1087273;27;19995;-71
2024/04/12 00:51:02;;;;;;;16.92;11.48;;;;;;;5.56;100.00;97743.31;1093203;26;19998;-71
2024/04/12 00:51:33;;;;;;;17.83;11.88;;;;;;;5.59;100.00;97747.38;1091736;27;20472;-71
2024/04/12 00:52:04;;;;;;;15.68;10.25;;;;;;;5.54;100.00;97739.31;1096309;27;20013;-71
2024/04/12 00:52:36;;;;;;;17.13;10.85;;;;;;;5.59;100.00;97753.38;1097242;26;20108;-71
2024/04/12 00:53:09;;;;;;;18.45;11.00;;;;;;;5.54;100.00;97744.50;1111865;26;20085;-72
2024/04/12 00:53:40;;;;;;;14.52;11.02;;;;;;;5.59;100.00;97752.56;1110520;26;20499;-71
2024/04/12 00:54:10;;;;;;;17.40;11.05;;;;;;;5.55;100.00;97743.50;1103686;26;20011;-71
2024/04/12 00:54:42;;;;;;;17.23;11.20;;;;;;;5.57;100.00;97757.19;1096426;26;20109;-71
2024/04/12 00:55:13;;;;;;;17.20;10.98;;;;;;;5.55;100.00;97748.72;1106144;26;20001;-72
2024/04/12 00:55:47;;;;;;;20.80;11.27;;;;;;;5.50;100.00;97744.06;1110894;26;20000;-71
2024/04/12 00:56:17;;;;;;;18.73;11.15;;;;;;;5.54;100.00;97747.13;1104946;26;20526;-71
2024/04/12 00:56:48;;;;;;;14.70;10.95;;;;;;;5.49;100.00;97747.63;1104650;26;20075;-72
2024/04/12 00:57:18;;;;;;;14.15;10.93;;;;;;;5.52;100.00;97747.28;1096279;27;20005;-71
2024/04/12 00:57:49;;;;;;;16.38;11.18;;;;;;;5.51;100.00;97744.88;1096292;27;20013;-72
2024/04/12 00:58:19;;;;;;;16.10;11.45;;;;;;;5.53;100.00;97743.69;1096287;26;20721;-72
2024/04/12 00:58:49;;;;;;;17.20;11.35;;;;;;;5.52;100.00;97741.28;1096685;26;20381;-71
2024/04/12 00:59:20;;;;;;;17.55;10.90;;;;;;;5.48;100.00;97737.41;1110338;26;20490;-71
2024/04/12 00:59:51;;;;;;;15.98;11.63;;;;;;;5.52;100.00;97741.28;1103034;26;19992;-71
2024/04/12 01:00:34;;;;;;;15.38;11.05;;;;;;;5.52;100.00;97746.47;1111217;26;20044;-71
2024/04/12 01:01:15;;;;;;;16.00;10.55;;;;;;;5.47;100.00;97739.22;1103819;26;20416;-71
2024/04/12 01:01:46;;;;;;;;;;;;;;;5.49;100.00;97745.03;1103973;26;19993;-72
2024/04/12 01:02:25;;;;;;;19.92;10.82;;;;;;;5.43;100.00;97738.78;1103410;26;19926;-71
2024/04/12 01:02:58;;;;;;;15.02;10.52;;;;;;;5.46;100.00;97742.00;1103498;26;19997;-71
2024/04/12 01:03:29;;;;;;;32.35;12.35;;;;;;;5.41;100.00;97742.53;1084903;27;20546;-71
2024/04/12 01:04:00;;;;;;;17.85;11.45;;;;;;;5.43;100.00;97745.75;1099128;26;20075;-71
2024/04/12 01:04:30;;;;;;;15.23;10.95;;;;;;;5.42;100.00;97742.34;1103403;26;20041;-71
2024/04/12 01:05:01;;;;;;;13.50;10.27;;;;;;;5.42;100.00;97742.34;1097343;26;20009;-71
2024/04/12 01:05:35;;;;;;;18.17;11.63;;;;;;;5.36;100.00;97732.66;1104218;26;20001;-71
2024/04/12 01:06:07;;;;;;;15.23;10.45;;;;;;;5.37;100.00;97728.28;1110551;26;20070;-71
2024/04/12 01:06:43;;;;;;;14.27;10.75;;;;;;;5.38;100.00;97741.09;1105028;26;20091;-72
2024/04/12 01:07:13;;;;;;;17.30;10.57;;;;;;;5.38;100.00;97746.31;1096204;27;20009;-71
2024/04/12 01:07:50;;;;;;;13.15;10.43;;;;;;;5.37;100.00;97736.88;1091139;27;20343;-71
2024/04/12 01:08:20;;;;;;;18.98;10.88;;;;;;;5.37;100.00;97738.69;1099421;26;20002;-71
2024/04/12 01:08:52;;;;;;;14.63;10.90;;;;;;;5.33;100.00;97734.81;1104750;26;20720;-71
2024/04/12 01:09:22;;;;;;;15.82;10.65;;;;;;;5.32;100.00;97734.00;1108696;26;20004;-71
2024/04/12 01:09:54;;;;;;;13.52;10.10;;;;;;;5.32;100.00;97731.41;1103321;26;19997;-71
2024/04/12 01:10:25;;;;;;;15.48;10.77;;;;;;;5.28;100.00;97724.13;1089756;27;20017;-72
2024/04/12 01:10:56;;;;;;;15.98;10.60;;;;;;;5.29;100.00;97736.16;1095903;26;20001;-71
2024/04/12 01:11:31;;;;;;;17.65;10.85;;;;;;;5.30;100.00;97727.34;1089466;27;19995;-71
2024/04/12 01:12:02;;;;;;;16.27;11.02;;;;;;;5.33;100.00;97734.81;1082420;27;19999;-71
2024/04/12 01:12:33;;;;;;;14.00;10.85;;;;;;;5.33;100.00;97735.63;1089053;27;20072;-71
2024/04/12 01:13:04;;;;;;;17.60;11.23;;;;;;;5.32;100.00;97736.59;1090847;27;20014;-72
2024/04/12 01:13:36;;;;;;;14.25;10.70;;;;;;;5.34;100.00;97733.84;1098688;26;20001;-71
2024/04/12 01:14:08;;;;;;;25.63;11.30;;;;;;;5.32;100.00;97733.19;1111097;26;20069;-70
2024/04/12 01:14:38;;;;;;;13.85;10.52;;;;;;;5.31;100.00;97735.00;1118077;26;20006;-71
2024/04/12 01:15:09;;;;;;;16.25;10.65;;;;;;;5.26;100.00;97726.91;1103539;26;19993;-71
2024/04/12 01:15:39;;;;;;;17.33;11.00;;;;;;;5.28;100.00;97735.34;1098341;26;19997;-71
2024/04/12 01:16:10;;;;;;;17.88;11.30;;;;;;;5.31;100.00;97731.59;1090671;27;20050;-71
2024/04/12 01:16:42;;;;;;;16.00;10.52;;;;;;;5.25;100.00;97720.09;1097948;26;20008;-72
2024/04/12 01:17:13;;;;;;;17.73;10.48;;;;;;;5.29;100.00;97725.75;1103942;26;20083;-71
2024/04/12 01:17:44;;;;;;;13.25;10.52;;;;;;;5.28;100.00;97724.13;1096605;26;20162;-71
2024/04/12 01:18:14;;;;;;;17.98;10.15;;;;;;;5.26;100.00;97728.69;1096153;27;20044;-71
2024/04/12 01:18:45;;;;;;;15.18;10.40;;;;;;;5.21;100.00;97718.84;1097100;26;20690;-71
2024/04/12 01:19:16;;;;;;;14.15;10.13;;;;;;;5.25;100.00;97714.88;1103860;26;20001;-71
2024/04/12 01:19:46;;;;;;;15.63;10.75;;;;;;;5.26;100.00;97721.69;1109865;26;20000;-71
2024/04/12 01:20:17;;;;;;;17.52;10.80;;;;;;;5.22;100.00;97723.03;1103541;26;19993;-71
2024/04/12 01:20:49;;;;;;;17.70;10.43;;;;;;;5.24;100.00;97723.69;1096293;27;20009;-71
2024/04/12 01:21:20;;;;;;;16.52;9.93;;;;;;;5.24;100.00;97723.69;1096164;27;20013;-71
2024/04/12 01:21:51;;;;;;;19.92;11.38;;;;;;;5.25;100.00;97730.50;1096494;27;20052;-71
2024/04/12 01:22:25;;;;;;;15.82;11.48;;;;;;;5.25;100.00;97735.72;1089842;27;19999;-71
2024/04/12 01:22:58;;;;;;;15.90;10.73;;;;;;;5.27;100.00;97732.94;1095409;26;20478;-71
2024/04/12 01:23:28;;;;;;;16.42;10.75;;;;;;;5.26;100.00;97732.09;1092221;26;20346;-72
2024/04/12 01:23:58;;;;;;;15.57;10.98;;;;;;;5.27;100.00;97728.53;1103406;26;19997;-71
2024/04/12 01:24:29;;;;;;;15.63;10.68;;;;;;;5.22;100.00;97714.44;1103798;26;19997;-71
2024/04/12 01:25:01;;;;;;;13.50;10.60;;;;;;;5.28;100.00;97729.34;1103832;26;20456;-71
2024/04/12 01:25:33;;;;;;;15.48;10.50;;;;;;;5.23;100.00;97724.69;1110677;26;20011;-71
2024/04/12 01:26:04;;;;;;;18.55;11.30;;;;;;;5.27;100.00;97728.53;1096182;27;20461;-71
2024/04/12 01:26:35;;;;;;;14.43;10.85;;;;;;;5.23;100.00;97724.69;1097288;26;20006;-71
2024/04/12 01:27:06;;;;;;;17.70;10.63;;;;;;;5.27;100.00;97733.75;1097035;26;20008;-71
2024/04/12 01:27:40;;;;;;;15.52;10.63;;;;;;;5.22;100.00;97724.84;1104078;26;19993;-71
2024/04/12 01:28:10;;;;;;;16.58;10.60;;;;;;;5.26;100.00;97726.09;1095582;27;20002;-71
2024/04/12 01:28:44;;;;;;;16.50;10.38;;;;;;;5.21;100.00;97729.25;1090282;27;20458;-71
2024/04/12 01:29:14;;;;;;;15.30;10.75;;;;;;;5.24;100.00;97733.28;1097868;26;19994;-71
2024/04/12 01:29:45;;;;;;;15.80;10.00;;;;;;;5.22;100.00;97727.44;1102992;26;20258;-72
2024/04/12 01:30:20;;;;;;;15.38;10.90;;;;;;;5.22;100.00;97730.06;1104294;26;20001;-70
2024/04/12 01:30:56;;;;;;;16.30;10.15;;;;;;;5.17;100.00;97722.78;1103316;26;20001;-71
2024/04/12 01:31:27;;;;;;;15.80;10.38;;;;;;;5.20;100.00;97732.84;1098517;26;20080;-71
2024/04/12 01:31:57;;;;;;;16.85;10.55;;;;;;;5.19;100.00;97732.00;1106161;26;20102;-70
2024/04/12 01:32:28;;;;;;;15.18;10.25;;;;;;;5.12;100.00;97725.91;1098842;26;20457;-71
2024/04/12 01:32:58;;;;;;;18.00;9.85;;;;;;;5.13;100.00;97734.53;1089019;27;20553;-71
2024/04/12 01:33:31;;;;;;;18.45;10.73;;;;;;;5.17;100.00;97730.59;1082394;27;20351;-70
2024/04/12 01:34:02;;;;;;;13.63;9.80;;;;;;;5.16;100.00;97736.78;1110765;26;19992;-71
2024/04/12 01:34:33;;;;;;;14.85;10.93;;;;;;;5.14;100.00;97738.75;1110455;26;20357;-71
2024/04/12 01:35:04;;;;;;;17.25;10.30;;;;;;;5.12;100.00;97736.31;1111142;26;20015;-70
2024/04/12 01:35:35;;;;;;;18.95;10.48;;;;;;;5.06;100.00;97729.22;1117354;26;20786;-70
2024/04/12 01:36:05;;;;;;;19.48;10.32;;;;;;;5.13;100.00;97737.13;1110905;26;19996;-71
2024/04/12 01:36:36;;;;;;;23.48;10.32;;;;;;;5.11;100.00;97739.13;1103237;26;20062;-73
2024/04/12 01:37:07;;;;;;;20.35;9.80;;;;;;;5.11;100.00;97744.31;1103400;26;20012;-71
2024/04/12 01:37:43;;;;;;;18.25;10.18;;;;;;;5.11;100.00;97733.91;1103794;26;20004;-70
2024/04/12 01:38:16;;;;;;;13.98;10.00;;;;;;;5.07;100.00;97733.47;1112278;26;20006;-71
2024/04/12 01:38:53;;;;;;;18.85;10.30;;;;;;;5.10;100.00;97737.50;1117913;26;19996;-70
2024/04/12 01:39:24;;;;;;;18.42;10.23;;;;;;;5.07;100.00;97733.47;1110035;26;19993;-70
2024/04/12 01:39:54;;;;;;;19.35;10.65;;;;;;;5.07;100.00;97743.06;1103205;26;20082;-70
2024/04/12 01:40:25;;;;;;;16.52;10.48;;;;;;;5.05;100.00;97739.81;1091366;27;19998;-70
2024/04/12 01:41:05;;;;;;;15.52;9.50;;;;;;;4.98;100.00;97724.09;1090512;27;20741;-70
2024/04/12 01:41:35;;;;;;;13.38;9.57;;;;;;;5.00;100.00;97735.16;1091307;27;20447;-71
2024/04/12 01:42:05;;;;;;;13.40;10.18;;;;;;;5.00;100.00;97737.75;1096349;27;20001;-70
2024/04/12 01:42:37;;;;;;;13.18;9.82;;;;;;;4.94;100.00;97734.06;1103260;26;19993;-71
2024/04/12 01:43:08;;;;;;;14.93;10.30;;;;;;;5.00;100.00;97742.13;1103319;26;20000;-71
2024/04/12 01:43:38;;;;;;;19.85;11.00;;;;;;;4.97;100.00;97735.50;1110238;26;19996;-71
2024/04/12 01:44:09;;;;;;;14.98;10.25;;;;;;;4.97;100.00;97744.13;1096539;26;20002;-71
2024/04/12 01:45:12;;;;;;;15.52;10.98;;;;;;;4.95;100.00;97735.66;1103477;26;20074;-71
2024/04/12 01:45:30;;;;;;;18.48;10.48;;;;;;;4.95;100.00;97737.47;1101044;26;20040;-71
2024/04/12 01:46:09;;;;;;;14.80;10.27;;;;;;;4.96;100.00;97741.69;1103378;26;20656;-71
2024/04/12 01:46:40;;;;;;;20.67;10.57;;;;;;;4.97;100.00;97743.31;1091788;27;20002;-71
2024/04/12 01:47:14;;;;;;;14.73;10.65;;;;;;;4.97;100.00;97749.31;1103123;26;20095;-70
2024/04/12 01:47:46;;;;;;;14.25;10.90;;;;;;;4.94;100.00;97734.06;1106679;26;20406;-71
2024/04/12 01:48:17;;;;;;;17.77;10.77;;;;;;;4.93;100.00;97727.25;1106638;26;20015;-71
2024/04/12 01:48:47;;;;;;;13.38;9.82;;;;;;;4.97;100.00;97738.13;1118134;26;19996;-71
2024/04/12 01:49:22;;;;;;;18.88;11.13;;;;;;;4.97;100.00;97738.91;1110356;26;20849;-71
2024/04/12 01:49:53;;;;;;;16.88;10.75;;;;;;;4.97;100.00;97738.91;1090140;26;20014;-71
2024/04/12 01:50:23;;;;;;;15.07;10.85;;;;;;;4.99;100.00;97740.53;1097433;26;20453;-71
2024/04/12 01:50:54;;;;;;;14.40;10.73;;;;;;;4.92;100.00;97733.41;1104559;26;20001;-71
2024/04/12 01:51:25;;;;;;;15.80;10.90;;;;;;;4.99;100.00;97737.91;1104333;26;20001;-71
2024/04/12 01:51:56;;;;;;;18.33;10.30;;;;;;;5.01;100.00;97743.75;1101111;26;20001;-71
2024/04/12 01:52:26;;;;;;;14.18;10.35;;;;;;;5.00;100.00;97742.13;1096122;27;20001;-71
2024/04/12 01:53:09;;;;;;;13.93;10.20;;;;;;;4.97;100.00;97738.13;1089603;27;20002;-71
2024/04/12 01:53:40;;;;;;;16.35;9.90;;;;;;;4.96;100.00;97737.31;1102211;26;20010;-71
2024/04/12 01:54:13;;;;;;;14.35;10.10;;;;;;;4.96;100.00;97742.50;1103609;26;20754;-71
2024/04/12 01:55:04;;;;;;;14.35;10.52;;;;;;;5.00;100.00;97742.97;1111207;26;19997;-71
2024/04/12 01:55:34;;;;;;;20.40;10.88;;;;;;;4.97;100.00;97733.72;1110457;26;20000;-71
2024/04/12 01:56:05;;;;;;;17.27;10.80;;;;;;;4.97;100.00;97738.91;1108703;26;20383;-71
2024/04/12 01:56:36;;;;;;;16.08;10.30;;;;;;;4.97;100.00;97738.91;1104745;26;20033;-72
2024/04/12 01:57:06;;;;;;;18.15;10.20;;;;;;;4.97;100.00;97740.72;1103195;26;20016;-72
2024/04/12 01:57:41;;;;;;;17.17;11.20;;;;;;;4.95;100.00;97738.28;1089145;26;20012;-71
2024/04/12 01:58:12;;;;;;;14.23;10.55;;;;;;;4.97;100.00;97738.13;1097362;26;20001;-71
2024/04/12 01:58:42;;;;;;;16.42;11.02;;;;;;;4.97;100.00;97738.91;1103419;26;20013;-71
2024/04/12 01:59:15;;;;;;;17.52;11.27;;;;;;;4.97;100.00;97738.91;1104486;26;20016;-72
2024/04/12 01:59:45;;;;;;;14.00;10.05;;;;;;;4.95;100.00;97740.06;1111677;26;20310;-71
2024/04/12 02:00:16;;;;;;;14.77;10.88;;;;;;;4.95;100.00;97738.28;1111071;26;20477;-71
2024/04/12 02:00:49;;;;;;;17.73;10.38;;;;;;;4.94;100.00;97743.66;1117748;26;20327;-71
2024/04/12 02:01:19;;;;;;;13.05;9.40;;;;;;;4.95;100.00;97740.88;1118128;26;20569;-71
2024/04/12 02:01:50;;;;;;;13.88;10.60;;;;;;;4.89;100.00;97731.16;1118412;26;19999;-71
2024/04/12 02:02:20;;;;;;;17.30;9.98;;;;;;;4.92;100.00;97736.03;1117880;26;19995;-71
2024/04/12 02:02:54;;;;;;;15.63;10.88;;;;;;;4.95;100.00;97740.88;1110669;26;20462;-71
2024/04/12 02:03:29;;;;;;;15.10;10.20;;;;;;;4.93;100.00;97740.25;1096222;27;20460;-72
2024/04/12 02:04:02;;;;;;;14.10;9.90;;;;;;;4.94;100.00;97741.88;1090979;27;20076;-71
2024/04/12 02:04:34;;;;;;;15.95;11.02;;;;;;;4.90;100.00;97732.81;1098694;26;20323;-71
2024/04/12 02:05:05;;;;;;;14.18;10.68;;;;;;;4.88;100.00;97734.75;1102163;26;20002;-71
2024/04/12 02:05:37;;;;;;;15.30;10.52;;;;;;;4.94;100.00;97739.25;1091486;27;20010;-71
2024/04/12 02:06:08;;;;;;;18.20;11.68;;;;;;;4.93;100.00;97737.66;1088818;27;20010;-71
2024/04/12 02:06:42;;;;;;;18.42;10.43;;;;;;;4.92;100.00;97741.22;1089880;27;20237;-71
2024/04/12 02:07:14;;;;;;;22.67;11.13;;;;;;;4.92;100.00;97737.81;1100564;26;20001;-71
2024/04/12 02:07:44;;;;;;;20.40;11.30;;;;;;;4.92;100.00;97741.22;1112022;26;20044;-71
2024/04/12 02:08:17;;;;;;;17.83;10.70;;;;;;;4.93;100.00;97742.06;1117543;26;20007;-71
2024/04/12 02:08:48;;;;;;;22.73;11.88;;;;;;;4.91;100.00;97742.22;1110532;26;20008;-71
2024/04/12 02:09:20;;;;;;;16.70;11.85;;;;;;;4.92;100.00;97745.63;1109473;26;20019;-71
2024/04/12 02:09:50;;;;;;;15.63;11.30;;;;;;;4.93;100.00;97740.25;1096471;26;20330;-71
2024/04/12 02:10:22;;;;;;;18.13;11.55;;;;;;;4.90;100.00;97732.00;1103691;26;20083;-71
2024/04/12 02:10:53;;;;;;;24.23;11.75;;;;;;;4.95;100.00;97740.06;1088810;27;20006;-71
2024/04/12 02:11:24;;;;;;;22.05;12.15;;;;;;;4.89;100.00;97731.16;1089029;27;20477;-71
2024/04/12 02:11:57;;;;;;;24.80;12.52;;;;;;;4.95;100.00;97734.88;1082998;27;20051;-71
2024/04/12 02:12:27;;;;;;;20.92;12.50;;;;;;;4.96;100.00;97737.31;1092040;26;19998;-71
2024/04/12 02:12:59;;;;;;;18.75;12.85;;;;;;;4.95;100.00;97746.06;1117393;26;20293;-71
2024/04/12 02:13:35;;;;;;;18.30;12.60;;;;;;;4.95;100.00;97737.47;1117947;26;19998;-71
2024/04/12 02:14:06;;;;;;;22.90;12.95;;;;;;;4.95;100.00;97740.88;1110421;26;20004;-71
2024/04/12 02:14:38;;;;;;;19.20;12.57;;;;;;;4.95;100.00;97745.28;1110394;26;20001;-71
2024/04/12 02:15:25;;;;;;;19.27;12.38;;;;;;;4.94;100.00;97752.28;1110527;26;20008;-71
2024/04/12 02:15:56;;;;;;;15.93;11.23;;;;;;;4.96;100.00;97747.72;1109016;26;20060;-71
2024/04/12 02:16:27;;;;;;;22.13;12.30;;;;;;;4.97;100.00;97754.53;1103169;26;20067;-71
2024/04/12 02:16:58;;;;;;;15.50;11.90;;;;;;;4.97;100.00;97746.72;1107413;26;20001;-71
2024/04/12 02:17:30;;;;;;;17.20;12.20;;;;;;;4.97;100.00;97754.53;1115218;26;20436;-71
2024/04/12 02:18:02;;;;;;;20.52;13.75;;;;;;;5.06;100.00;97751.84;1117790;26;20054;-71
2024/04/12 02:18:33;;;;;;;19.65;14.02;;;;;;;5.05;100.00;97756.22;1125294;26;20123;-71
2024/04/12 02:19:06;;;;;;;22.63;14.02;;;;;;;5.11;100.00;97754.72;1125440;26;19991;-71
2024/04/12 02:19:36;;;;;;;18.30;13.63;;;;;;;5.09;100.00;97756.69;1109381;26;20007;-71
2024/04/12 02:20:10;;;;;;;25.05;14.13;;;;;;;5.09;100.00;97751.47;1109520;26;20015;-71
2024/04/12 02:20:44;;;;;;;22.60;13.63;;;;;;;5.07;100.00;97758.69;1097479;26;19997;-71
2024/04/12 02:21:15;;;;;;;21.60;14.23;;;;;;;5.09;100.00;97759.28;1099700;26;20000;-71
2024/04/12 02:21:47;;;;;;;21.65;13.73;;;;;;;5.08;100.00;97755.88;1102680;26;19997;-70
2024/04/12 02:22:19;;;;;;;21.15;15.40;;;;;;;5.13;100.00;97763.16;1096437;26;20133;-70
2024/04/12 02:22:49;;;;;;;19.60;13.95;;;;;;;5.08;100.00;97758.47;1096292;26;20569;-71
2024/04/12 02:23:20;;;;;;;22.00;14.40;;;;;;;5.07;100.00;97758.69;1090165;27;19998;-71
2024/04/12 02:23:52;;;;;;;23.17;13.65;;;;;;;5.07;100.00;97764.69;1083419;27;20383;-71
2024/04/12 02:24:23;;;;;;;20.00;13.60;;;;;;;5.10;100.00;97763.53;1082659;27;19999;-71
2024/04/12 02:24:54;;;;;;;17.77;13.05;;;;;;;5.07;100.00;97764.69;1083473;27;19999;-71
2024/04/12 02:25:24;;;;;;;19.35;14.02;;;;;;;5.10;100.00;97758.31;1096677;26;20013;-71
2024/04/12 02:25:58;;;;;;;18.50;13.65;;;;;;;5.05;100.00;97761.44;1103982;26;20012;-71
2024/04/12 02:26:29;;;;;;;21.48;15.00;;;;;;;5.10;100.00;97763.53;1110673;26;20004;-70
2024/04/12 02:27:00;;;;;;;18.25;13.88;;;;;;;5.04;100.00;97762.44;1104907;26;20357;-71
2024/04/12 02:27:30;;;;;;;20.08;13.73;;;;;;;5.09;100.00;97765.28;1110918;26;19993;-71
2024/04/12 02:28:07;;;;;;;21.92;14.68;;;;;;;5.11;100.00;97759.94;1110708;26;20442;-71
2024/04/12 02:28:40;;;;;;;20.35;14.13;;;;;;;5.14;100.00;97762.97;1098104;26;20008;-71
2024/04/12 02:29:10;;;;;;;19.92;14.57;;;;;;;5.15;100.00;97769.00;1104729;26;20001;-71